Portada
METAR-TAF:

METAR-TAF

Aeroports :

Aizawl, Índia

latitud: 23-50-18N, longitud: 92-37-13E, altitud: 405 m

Observació

L'informe es va fer fa 14 hores i 22 minuts, a les 09:00 UTC
Vent 3 kt del Nord/Nord-Est
Temperatura 27°C
Humitat 84%
Pressió 1012 hPa
Visibilitat: 4000 m
Núvols disperses a una alçada de 1800 ft
Cel ennuvolat a una alçada de 10000 ft
boirina

METAR: VELP 270900Z 02003KT 4000 BR SCT018 BKN100 27/24 Q1012 NOSIG

Hora: 04:52 (23:22 UTC)

Pronòstic

L'informe es va fer fa 15 hores i 22 minuts, a les 08:00 UTC
Pronòstic vàlid del 27 a les 09 UTC al 27 a les 18 UTC
Vent 3 kt del Nord-Est
Visibilitat: 4000 m
Núvols disperses a una alçada de 1800 ft
Cel ennuvolat a una alçada de 10000 ft
boirina
Evolucionant progressivament
l' 27 a les 16 UTC al 27 a les 18 UTC
Vent kt del Nord
Visibilitat: 2500 m
boirina

TAF: VELP 270800Z 2709/2718 05003KT 4000 BR SCT018 BKN100 BECMG 2716/2718 00000KT 2500 BR

Observacions i pronòstics meteorològics de més de 4000 aeroports (METAR i TAF).

Les estacions disponibles són els punts grocs i vermells al mapa.

Posi el ratolí al punt desitjat per veure el nom de l'estació.

Feu clic per veure les observacions i els pronòstics meteorològics.

Per canviar el mapa: feu clic els botons verds amb una creu de color negre per apropar; al botó verd amb un guió per allunyar la imatge; o en les fletxes verdes per a mapes adjacents.


METAR-TAF: